sensor_id;sensor_type;location;lat;lon;timestamp;temperature;humidity
44111;DHT22;29774;52.664;5.074;2022-07-15T00:00:32;15.80;70.30
44111;DHT22;29774;52.664;5.074;2022-07-15T00:02:59;15.20;72.40
44111;DHT22;29774;52.664;5.074;2022-07-15T00:05:25;16.10;70.70
44111;DHT22;29774;52.664;5.074;2022-07-15T00:07:51;17.70;73.70
44111;DHT22;29774;52.664;5.074;2022-07-15T00:10:17;18.70;69.00
44111;DHT22;29774;52.664;5.074;2022-07-15T00:12:51;18.10;67.60
44111;DHT22;29774;52.664;5.074;2022-07-15T00:15:20;17.30;69.80
44111;DHT22;29774;52.664;5.074;2022-07-15T00:17:46;16.40;68.70
44111;DHT22;29774;52.664;5.074;2022-07-15T00:20:13;16.70;66.80
44111;DHT22;29774;52.664;5.074;2022-07-15T00:22:39;17.80;66.00
44111;DHT22;29774;52.664;5.074;2022-07-15T00:25:05;16.80;71.40
44111;DHT22;29774;52.664;5.074;2022-07-15T00:27:31;17.90;69.00
44111;DHT22;29774;52.664;5.074;2022-07-15T00:29:57;19.40;66.00
44111;DHT22;29774;52.664;5.074;2022-07-15T00:32:22;17.40;62.90
44111;DHT22;29774;52.664;5.074;2022-07-15T00:34:48;17.70;64.90
44111;DHT22;29774;52.664;5.074;2022-07-15T00:37:17;16.80;65.20
44111;DHT22;29774;52.664;5.074;2022-07-15T00:39:42;16.50;76.50
44111;DHT22;29774;52.664;5.074;2022-07-15T00:42:11;18.30;68.20
44111;DHT22;29774;52.664;5.074;2022-07-15T00:44:37;20.10;64.60
44111;DHT22;29774;52.664;5.074;2022-07-15T00:47:03;18.70;60.70
44111;DHT22;29774;52.664;5.074;2022-07-15T00:49:29;19.20;67.00
44111;DHT22;29774;52.664;5.074;2022-07-15T00:51:55;18.80;65.60
44111;DHT22;29774;52.664;5.074;2022-07-15T00:54:24;19.30;58.60
44111;DHT22;29774;52.664;5.074;2022-07-15T00:56:53;20.00;64.20
44111;DHT22;29774;52.664;5.074;2022-07-15T00:59:23;20.40;61.20
44111;DHT22;29774;52.664;5.074;2022-07-15T01:01:52;20.90;55.40
44111;DHT22;29774;52.664;5.074;2022-07-15T01:04:18;18.70;65.80
44111;DHT22;29774;52.664;5.074;2022-07-15T01:06:45;17.90;60.80
44111;DHT22;29774;52.664;5.074;2022-07-15T01:09:11;16.00;66.80
44111;DHT22;29774;52.664;5.074;2022-07-15T01:11:36;15.50;75.80
44111;DHT22;29774;52.664;5.074;2022-07-15T01:14:03;15.30;69.20
44111;DHT22;29774;52.664;5.074;2022-07-15T01:16:29;14.60;72.80
44111;DHT22;29774;52.664;5.074;2022-07-15T01:18:55;14.20;75.20
44111;DHT22;29774;52.664;5.074;2022-07-15T01:21:21;14.90;75.40
44111;DHT22;29774;52.664;5.074;2022-07-15T01:23:46;14.00;74.40
44111;DHT22;29774;52.664;5.074;2022-07-15T01:26:13;13.70;76.50
44111;DHT22;29774;52.664;5.074;2022-07-15T01:28:40;13.50;77.40
44111;DHT22;29774;52.664;5.074;2022-07-15T01:31:06;13.40;77.90
44111;DHT22;29774;52.664;5.074;2022-07-15T01:33:33;13.20;76.80
44111;DHT22;29774;52.664;5.074;2022-07-15T01:35:59;13.10;78.60
44111;DHT22;29774;52.664;5.074;2022-07-15T01:38:26;12.90;78.70
44111;DHT22;29774;52.664;5.074;2022-07-15T01:40:52;12.90;79.00
44111;DHT22;29774;52.664;5.074;2022-07-15T01:43:17;12.90;79.90
44111;DHT22;29774;52.664;5.074;2022-07-15T01:45:44;12.80;80.20
44111;DHT22;29774;52.664;5.074;2022-07-15T01:48:11;12.60;80.50
44111;DHT22;29774;52.664;5.074;2022-07-15T01:51:01;12.60;80.80
44111;DHT22;29774;52.664;5.074;2022-07-15T01:53:28;12.50;80.50
44111;DHT22;29774;52.664;5.074;2022-07-15T01:55:54;12.40;80.30
44111;DHT22;29774;52.664;5.074;2022-07-15T01:58:20;12.30;80.80
44111;DHT22;29774;52.664;5.074;2022-07-15T02:00:46;12.30;81.30
44111;DHT22;29774;52.664;5.074;2022-07-15T02:03:12;12.20;80.80
44111;DHT22;29774;52.664;5.074;2022-07-15T02:05:38;12.20;82.20
44111;DHT22;29774;52.664;5.074;2022-07-15T02:08:04;12.10;81.20
44111;DHT22;29774;52.664;5.074;2022-07-15T02:10:30;12.00;81.50
44111;DHT22;29774;52.664;5.074;2022-07-15T02:13:12;12.00;82.10
44111;DHT22;29774;52.664;5.074;2022-07-15T02:15:38;12.00;81.50
44111;DHT22;29774;52.664;5.074;2022-07-15T02:18:05;12.10;81.70
44111;DHT22;29774;52.664;5.074;2022-07-15T02:20:31;12.00;81.40
44111;DHT22;29774;52.664;5.074;2022-07-15T02:22:57;12.00;82.20
44111;DHT22;29774;52.664;5.074;2022-07-15T02:25:24;11.90;82.30
44111;DHT22;29774;52.664;5.074;2022-07-15T02:27:56;11.90;82.30
44111;DHT22;29774;52.664;5.074;2022-07-15T02:30:25;11.80;81.50
44111;DHT22;29774;52.664;5.074;2022-07-15T02:32:52;11.70;81.70
44111;DHT22;29774;52.664;5.074;2022-07-15T02:35:17;11.70;82.00
44111;DHT22;29774;52.664;5.074;2022-07-15T02:37:44;11.70;81.80
44111;DHT22;29774;52.664;5.074;2022-07-15T02:40:10;11.60;81.50
44111;DHT22;29774;52.664;5.074;2022-07-15T02:42:36;11.70;82.80
44111;DHT22;29774;52.664;5.074;2022-07-15T02:45:02;11.60;82.50
44111;DHT22;29774;52.664;5.074;2022-07-15T02:47:28;11.50;82.60
44111;DHT22;29774;52.664;5.074;2022-07-15T02:49:54;11.70;82.60
44111;DHT22;29774;52.664;5.074;2022-07-15T02:52:19;11.60;82.20
44111;DHT22;29774;52.664;5.074;2022-07-15T02:54:45;11.50;82.00
44111;DHT22;29774;52.664;5.074;2022-07-15T02:57:10;11.50;82.30
44111;DHT22;29774;52.664;5.074;2022-07-15T02:59:36;11.40;82.30
44111;DHT22;29774;52.664;5.074;2022-07-15T03:02:01;11.50;82.80
44111;DHT22;29774;52.664;5.074;2022-07-15T03:04:27;11.40;82.30
44111;DHT22;29774;52.664;5.074;2022-07-15T03:06:53;11.40;83.20
44111;DHT22;29774;52.664;5.074;2022-07-15T03:09:18;11.40;82.50
44111;DHT22;29774;52.664;5.074;2022-07-15T03:11:44;11.50;82.70
44111;DHT22;29774;52.664;5.074;2022-07-15T03:14:10;11.40;82.20
44111;DHT22;29774;52.664;5.074;2022-07-15T03:16:35;11.30;82.40
44111;DHT22;29774;52.664;5.074;2022-07-15T03:19:01;11.20;82.50
44111;DHT22;29774;52.664;5.074;2022-07-15T03:21:27;11.30;82.90
44111;DHT22;29774;52.664;5.074;2022-07-15T03:23:52;11.30;83.20
44111;DHT22;29774;52.664;5.074;2022-07-15T03:26:18;11.30;82.80
44111;DHT22;29774;52.664;5.074;2022-07-15T03:28:43;11.20;82.10
44111;DHT22;29774;52.664;5.074;2022-07-15T03:31:09;11.10;82.40
44111;DHT22;29774;52.664;5.074;2022-07-15T03:33:35;11.20;83.60
44111;DHT22;29774;52.664;5.074;2022-07-15T03:36:00;11.20;83.80
44111;DHT22;29774;52.664;5.074;2022-07-15T03:38:26;11.30;83.80
44111;DHT22;29774;52.664;5.074;2022-07-15T03:40:51;11.30;83.30
44111;DHT22;29774;52.664;5.074;2022-07-15T03:43:18;11.30;83.10
44111;DHT22;29774;52.664;5.074;2022-07-15T03:45:43;11.40;83.90
44111;DHT22;29774;52.664;5.074;2022-07-15T03:48:09;11.30;82.70
44111;DHT22;29774;52.664;5.074;2022-07-15T03:50:34;11.30;83.60
44111;DHT22;29774;52.664;5.074;2022-07-15T03:53:01;11.30;83.10
44111;DHT22;29774;52.664;5.074;2022-07-15T03:55:26;11.20;84.00
44111;DHT22;29774;52.664;5.074;2022-07-15T03:57:52;11.30;84.30
44111;DHT22;29774;52.664;5.074;2022-07-15T04:00:18;11.20;83.30
44111;DHT22;29774;52.664;5.074;2022-07-15T04:02:43;11.10;83.30
44111;DHT22;29774;52.664;5.074;2022-07-15T04:05:09;11.10;83.60
44111;DHT22;29774;52.664;5.074;2022-07-15T04:07:34;11.20;84.30
44111;DHT22;29774;52.664;5.074;2022-07-15T04:10:00;11.30;84.60
44111;DHT22;29774;52.664;5.074;2022-07-15T04:12:26;11.40;84.20
44111;DHT22;29774;52.664;5.074;2022-07-15T04:14:51;11.30;84.30
44111;DHT22;29774;52.664;5.074;2022-07-15T04:17:17;11.20;83.20
44111;DHT22;29774;52.664;5.074;2022-07-15T04:19:42;11.10;84.20
44111;DHT22;29774;52.664;5.074;2022-07-15T04:22:08;11.10;84.40
44111;DHT22;29774;52.664;5.074;2022-07-15T04:24:33;11.20;84.30
44111;DHT22;29774;52.664;5.074;2022-07-15T04:26:59;11.30;85.10
44111;DHT22;29774;52.664;5.074;2022-07-15T04:29:24;11.40;84.80
44111;DHT22;29774;52.664;5.074;2022-07-15T04:31:50;11.50;84.60
44111;DHT22;29774;52.664;5.074;2022-07-15T04:34:15;11.40;84.00
44111;DHT22;29774;52.664;5.074;2022-07-15T04:36:41;11.20;83.10
44111;DHT22;29774;52.664;5.074;2022-07-15T04:39:07;11.20;83.70
44111;DHT22;29774;52.664;5.074;2022-07-15T04:41:32;11.50;85.00
44111;DHT22;29774;52.664;5.074;2022-07-15T04:43:58;11.50;84.60
44111;DHT22;29774;52.664;5.074;2022-07-15T04:46:23;11.60;84.50
44111;DHT22;29774;52.664;5.074;2022-07-15T04:48:49;11.70;84.70
44111;DHT22;29774;52.664;5.074;2022-07-15T04:51:33;11.70;83.80
44111;DHT22;29774;52.664;5.074;2022-07-15T04:53:59;11.80;84.70
44111;DHT22;29774;52.664;5.074;2022-07-15T04:56:24;12.00;84.30
44111;DHT22;29774;52.664;5.074;2022-07-15T04:58:50;12.20;84.20
44111;DHT22;29774;52.664;5.074;2022-07-15T05:01:15;12.20;83.80
44111;DHT22;29774;52.664;5.074;2022-07-15T05:03:42;12.40;83.70
44111;DHT22;29774;52.664;5.074;2022-07-15T05:06:07;12.40;84.20
44111;DHT22;29774;52.664;5.074;2022-07-15T05:08:33;12.50;83.80
44111;DHT22;29774;52.664;5.074;2022-07-15T05:10:59;12.90;82.30
44111;DHT22;29774;52.664;5.074;2022-07-15T05:13:24;13.00;82.50
44111;DHT22;29774;52.664;5.074;2022-07-15T05:15:50;12.90;82.20
44111;DHT22;29774;52.664;5.074;2022-07-15T05:18:16;12.90;83.20
44111;DHT22;29774;52.664;5.074;2022-07-15T05:20:41;13.20;83.80
44111;DHT22;29774;52.664;5.074;2022-07-15T05:23:07;13.30;83.00
44111;DHT22;29774;52.664;5.074;2022-07-15T05:25:33;13.60;81.10
44111;DHT22;29774;52.664;5.074;2022-07-15T05:27:58;14.20;84.90
44111;DHT22;29774;52.664;5.074;2022-07-15T05:30:24;15.20;81.30
44111;DHT22;29774;52.664;5.074;2022-07-15T05:32:49;16.50;77.30
44111;DHT22;29774;52.664;5.074;2022-07-15T05:35:15;18.70;68.00
44111;DHT22;29774;52.664;5.074;2022-07-15T05:37:41;17.30;72.70
44111;DHT22;29774;52.664;5.074;2022-07-15T05:40:08;17.20;73.90
44111;DHT22;29774;52.664;5.074;2022-07-15T05:42:33;18.80;67.30
44111;DHT22;29774;52.664;5.074;2022-07-15T05:44:59;18.10;70.20
44111;DHT22;29774;52.664;5.074;2022-07-15T05:47:26;18.90;66.30
44111;DHT22;29774;52.664;5.074;2022-07-15T05:49:52;18.70;66.90
44111;DHT22;29774;52.664;5.074;2022-07-15T05:52:17;18.60;65.50
44111;DHT22;29774;52.664;5.074;2022-07-15T05:54:43;19.00;65.30
44111;DHT22;29774;52.664;5.074;2022-07-15T05:57:08;19.00;63.80
44111;DHT22;29774;52.664;5.074;2022-07-15T05:59:34;18.80;64.80
44111;DHT22;29774;52.664;5.074;2022-07-15T06:02:00;20.00;62.20
44111;DHT22;29774;52.664;5.074;2022-07-15T06:04:25;21.30;57.60
44111;DHT22;29774;52.664;5.074;2022-07-15T06:06:54;21.00;58.40
44111;DHT22;29774;52.664;5.074;2022-07-15T06:09:21;21.80;55.40
44111;DHT22;29774;52.664;5.074;2022-07-15T06:11:46;22.00;54.80
44111;DHT22;29774;52.664;5.074;2022-07-15T06:14:12;21.70;55.50
44111;DHT22;29774;52.664;5.074;2022-07-15T06:16:38;21.90;55.00
44111;DHT22;29774;52.664;5.074;2022-07-15T06:19:03;22.00;54.20
44111;DHT22;29774;52.664;5.074;2022-07-15T06:21:29;22.10;54.40
44111;DHT22;29774;52.664;5.074;2022-07-15T06:23:55;22.10;54.20
44111;DHT22;29774;52.664;5.074;2022-07-15T06:26:21;22.00;52.60
44111;DHT22;29774;52.664;5.074;2022-07-15T06:28:46;22.00;54.20
44111;DHT22;29774;52.664;5.074;2022-07-15T06:31:12;22.20;54.00
44111;DHT22;29774;52.664;5.074;2022-07-15T06:33:38;22.20;54.10
44111;DHT22;29774;52.664;5.074;2022-07-15T06:36:03;22.10;53.90
44111;DHT22;29774;52.664;5.074;2022-07-15T06:38:31;22.10;53.70
44111;DHT22;29774;52.664;5.074;2022-07-15T06:40:57;22.10;54.10
44111;DHT22;29774;52.664;5.074;2022-07-15T06:43:22;22.20;53.80
44111;DHT22;29774;52.664;5.074;2022-07-15T06:45:48;22.20;53.70
44111;DHT22;29774;52.664;5.074;2022-07-15T06:48:14;22.20;53.80
44111;DHT22;29774;52.664;5.074;2022-07-15T06:50:40;22.20;53.60
44111;DHT22;29774;52.664;5.074;2022-07-15T06:53:05;22.20;53.70
44111;DHT22;29774;52.664;5.074;2022-07-15T06:55:31;22.20;52.80
44111;DHT22;29774;52.664;5.074;2022-07-15T06:57:56;22.20;53.70
44111;DHT22;29774;52.664;5.074;2022-07-15T07:00:22;22.20;53.60
44111;DHT22;29774;52.664;5.074;2022-07-15T07:02:47;22.20;53.00
44111;DHT22;29774;52.664;5.074;2022-07-15T07:05:13;22.30;53.40
44111;DHT22;29774;52.664;5.074;2022-07-15T07:07:38;22.20;53.30
44111;DHT22;29774;52.664;5.074;2022-07-15T07:10:05;22.30;53.50
44111;DHT22;29774;52.664;5.074;2022-07-15T07:12:31;22.20;53.60
44111;DHT22;29774;52.664;5.074;2022-07-15T07:14:56;22.20;53.60
44111;DHT22;29774;52.664;5.074;2022-07-15T07:17:22;22.20;53.60
44111;DHT22;29774;52.664;5.074;2022-07-15T07:19:48;22.30;53.40
44111;DHT22;29774;52.664;5.074;2022-07-15T07:22:14;22.30;53.50
44111;DHT22;29774;52.664;5.074;2022-07-15T07:24:39;22.30;53.50
44111;DHT22;29774;52.664;5.074;2022-07-15T07:27:05;22.30;53.50
44111;DHT22;29774;52.664;5.074;2022-07-15T07:29:31;22.30;53.50
44111;DHT22;29774;52.664;5.074;2022-07-15T07:31:57;22.30;53.30
44111;DHT22;29774;52.664;5.074;2022-07-15T07:34:23;22.30;53.20
44111;DHT22;29774;52.664;5.074;2022-07-15T07:36:48;22.40;53.10
44111;DHT22;29774;52.664;5.074;2022-07-15T07:39:14;22.40;50.60
44111;DHT22;29774;52.664;5.074;2022-07-15T07:41:40;22.50;53.00
44111;DHT22;29774;52.664;5.074;2022-07-15T07:44:06;22.50;52.90
44111;DHT22;29774;52.664;5.074;2022-07-15T07:46:33;22.60;52.80
44111;DHT22;29774;52.664;5.074;2022-07-15T07:48:58;22.70;52.60
44111;DHT22;29774;52.664;5.074;2022-07-15T07:51:24;22.60;52.50
44111;DHT22;29774;52.664;5.074;2022-07-15T07:53:49;22.70;52.50
44111;DHT22;29774;52.664;5.074;2022-07-15T07:56:15;22.70;52.40
44111;DHT22;29774;52.664;5.074;2022-07-15T07:58:41;22.70;52.30
44111;DHT22;29774;52.664;5.074;2022-07-15T08:01:07;22.70;52.20
44111;DHT22;29774;52.664;5.074;2022-07-15T08:03:33;22.70;52.10
44111;DHT22;29774;52.664;5.074;2022-07-15T08:05:59;22.70;52.30
44111;DHT22;29774;52.664;5.074;2022-07-15T08:08:25;22.80;52.10
44111;DHT22;29774;52.664;5.074;2022-07-15T08:10:52;22.80;52.10
44111;DHT22;29774;52.664;5.074;2022-07-15T08:13:20;22.80;52.10
44111;DHT22;29774;52.664;5.074;2022-07-15T08:15:47;22.90;52.00
44111;DHT22;29774;52.664;5.074;2022-07-15T08:18:13;22.90;52.10
44111;DHT22;29774;52.664;5.074;2022-07-15T08:20:39;22.90;52.00
44111;DHT22;29774;52.664;5.074;2022-07-15T08:23:05;22.90;52.60
44111;DHT22;29774;52.664;5.074;2022-07-15T08:25:34;23.00;52.30
44111;DHT22;29774;52.664;5.074;2022-07-15T08:28:00;23.00;52.30
44111;DHT22;29774;52.664;5.074;2022-07-15T08:30:27;23.00;52.40
44111;DHT22;29774;52.664;5.074;2022-07-15T08:32:53;23.00;52.40
44111;DHT22;29774;52.664;5.074;2022-07-15T08:35:20;23.00;52.40
44111;DHT22;29774;52.664;5.074;2022-07-15T08:37:46;23.00;52.40
44111;DHT22;29774;52.664;5.074;2022-07-15T08:40:11;23.00;52.50
44111;DHT22;29774;52.664;5.074;2022-07-15T08:42:38;23.00;52.70
44111;DHT22;29774;52.664;5.074;2022-07-15T08:45:09;23.10;52.50
44111;DHT22;29774;52.664;5.074;2022-07-15T08:47:37;23.10;52.40
44111;DHT22;29774;52.664;5.074;2022-07-15T08:50:04;23.10;51.90
44111;DHT22;29774;52.664;5.074;2022-07-15T08:52:33;23.20;52.10
44111;DHT22;29774;52.664;5.074;2022-07-15T08:54:59;23.10;52.40
44111;DHT22;29774;52.664;5.074;2022-07-15T08:57:25;23.20;52.10
44111;DHT22;29774;52.664;5.074;2022-07-15T08:59:54;23.20;52.10
44111;DHT22;29774;52.664;5.074;2022-07-15T09:02:20;23.20;51.70
44111;DHT22;29774;52.664;5.074;2022-07-15T09:05:21;23.20;52.00
44111;DHT22;29774;52.664;5.074;2022-07-15T09:10:24;23.20;52.40
44111;DHT22;29774;52.664;5.074;2022-07-15T09:12:52;23.20;52.00
44111;DHT22;29774;52.664;5.074;2022-07-15T09:15:40;23.20;52.30
44111;DHT22;29774;52.664;5.074;2022-07-15T09:18:18;23.30;52.40
44111;DHT22;29774;52.664;5.074;2022-07-15T09:20:44;23.30;52.00
44111;DHT22;29774;52.664;5.074;2022-07-15T09:23:11;23.30;52.00
44111;DHT22;29774;52.664;5.074;2022-07-15T09:25:41;23.30;51.80
44111;DHT22;29774;52.664;5.074;2022-07-15T09:28:08;23.40;51.90
44111;DHT22;29774;52.664;5.074;2022-07-15T09:30:39;23.30;52.10
44111;DHT22;29774;52.664;5.074;2022-07-15T09:33:26;23.30;53.00
44111;DHT22;29774;52.664;5.074;2022-07-15T09:36:07;23.30;52.80
44111;DHT22;29774;52.664;5.074;2022-07-15T09:38:46;23.30;52.60
44111;DHT22;29774;52.664;5.074;2022-07-15T09:44:00;23.30;52.50
44111;DHT22;29774;52.664;5.074;2022-07-15T09:46:29;23.40;52.60
44111;DHT22;29774;52.664;5.074;2022-07-15T09:49:04;23.40;48.60
44111;DHT22;29774;52.664;5.074;2022-07-15T09:51:29;23.40;52.40
44111;DHT22;29774;52.664;5.074;2022-07-15T09:53:55;23.40;52.40
44111;DHT22;29774;52.664;5.074;2022-07-15T09:56:21;23.40;52.40
44111;DHT22;29774;52.664;5.074;2022-07-15T09:58:49;23.40;52.60
44111;DHT22;29774;52.664;5.074;2022-07-15T10:01:15;23.40;52.60
44111;DHT22;29774;52.664;5.074;2022-07-15T10:03:41;23.50;52.30
44111;DHT22;29774;52.664;5.074;2022-07-15T10:06:06;23.50;52.60
44111;DHT22;29774;52.664;5.074;2022-07-15T10:08:34;23.50;52.40
44111;DHT22;29774;52.664;5.074;2022-07-15T10:11:00;23.50;52.50
44111;DHT22;29774;52.664;5.074;2022-07-15T10:13:54;23.50;52.40
44111;DHT22;29774;52.664;5.074;2022-07-15T10:27:31;23.60;52.40
44111;DHT22;29774;52.664;5.074;2022-07-15T10:30:06;23.60;52.30
44111;DHT22;29774;52.664;5.074;2022-07-15T10:33:24;23.60;52.20
44111;DHT22;29774;52.664;5.074;2022-07-15T10:35:49;23.60;52.10
44111;DHT22;29774;52.664;5.074;2022-07-15T10:38:28;23.70;51.70
44111;DHT22;29774;52.664;5.074;2022-07-15T10:48:48;23.70;52.00
44111;DHT22;29774;52.664;5.074;2022-07-15T10:51:48;23.60;51.90
44111;DHT22;29774;52.664;5.074;2022-07-15T10:56:47;23.70;52.10
44111;DHT22;29774;52.664;5.074;2022-07-15T10:59:16;23.70;52.00
44111;DHT22;29774;52.664;5.074;2022-07-15T11:01:44;23.70;52.00
44111;DHT22;29774;52.664;5.074;2022-07-15T11:12:16;23.80;52.00
44111;DHT22;29774;52.664;5.074;2022-07-15T11:17:12;23.90;51.90
44111;DHT22;29774;52.664;5.074;2022-07-15T11:19:39;23.80;52.20
44111;DHT22;29774;52.664;5.074;2022-07-15T11:22:07;23.80;52.30
44111;DHT22;29774;52.664;5.074;2022-07-15T11:24:35;23.80;52.20
44111;DHT22;29774;52.664;5.074;2022-07-15T11:27:00;23.80;52.20
44111;DHT22;29774;52.664;5.074;2022-07-15T11:29:43;23.80;51.10
44111;DHT22;29774;52.664;5.074;2022-07-15T11:32:09;23.90;48.00
44111;DHT22;29774;52.664;5.074;2022-07-15T11:34:44;23.70;52.00
44111;DHT22;29774;52.664;5.074;2022-07-15T11:37:11;23.80;52.10
44111;DHT22;29774;52.664;5.074;2022-07-15T11:39:37;23.80;52.00
44111;DHT22;29774;52.664;5.074;2022-07-15T11:42:03;23.90;52.10
44111;DHT22;29774;52.664;5.074;2022-07-15T11:44:49;23.90;52.20
44111;DHT22;29774;52.664;5.074;2022-07-15T11:47:15;23.90;52.10
44111;DHT22;29774;52.664;5.074;2022-07-15T11:49:41;23.90;52.30
44111;DHT22;29774;52.664;5.074;2022-07-15T11:52:12;23.90;52.20
44111;DHT22;29774;52.664;5.074;2022-07-15T11:54:40;23.90;52.30
44111;DHT22;29774;52.664;5.074;2022-07-15T11:57:09;23.90;52.30
44111;DHT22;29774;52.664;5.074;2022-07-15T11:59:35;24.00;51.70
44111;DHT22;29774;52.664;5.074;2022-07-15T12:02:06;23.90;52.30
44111;DHT22;29774;52.664;5.074;2022-07-15T12:04:32;24.10;51.80
44111;DHT22;29774;52.664;5.074;2022-07-15T12:06:58;24.00;52.00
44111;DHT22;29774;52.664;5.074;2022-07-15T12:09:25;24.00;52.30
44111;DHT22;29774;52.664;5.074;2022-07-15T12:11:50;24.00;52.10
44111;DHT22;29774;52.664;5.074;2022-07-15T12:14:21;24.10;51.70
44111;DHT22;29774;52.664;5.074;2022-07-15T12:16:48;24.10;51.70
44111;DHT22;29774;52.664;5.074;2022-07-15T12:19:24;24.10;51.80
44111;DHT22;29774;52.664;5.074;2022-07-15T12:21:52;24.00;52.00
44111;DHT22;29774;52.664;5.074;2022-07-15T12:24:22;24.00;51.90
44111;DHT22;29774;52.664;5.074;2022-07-15T12:29:22;24.10;51.90
44111;DHT22;29774;52.664;5.074;2022-07-15T12:31:59;24.20;48.60
44111;DHT22;29774;52.664;5.074;2022-07-15T12:37:14;24.10;51.90
44111;DHT22;29774;52.664;5.074;2022-07-15T12:40:06;24.10;52.10
44111;DHT22;29774;52.664;5.074;2022-07-15T12:42:42;24.10;51.60
44111;DHT22;29774;52.664;5.074;2022-07-15T12:48:07;24.30;50.90
44111;DHT22;29774;52.664;5.074;2022-07-15T12:53:08;24.10;51.70
44111;DHT22;29774;52.664;5.074;2022-07-15T12:55:41;24.10;50.60
44111;DHT22;29774;52.664;5.074;2022-07-15T12:58:09;24.10;52.00
44111;DHT22;29774;52.664;5.074;2022-07-15T13:00:36;24.10;51.60
44111;DHT22;29774;52.664;5.074;2022-07-15T13:03:09;24.20;51.90
44111;DHT22;29774;52.664;5.074;2022-07-15T13:08:04;24.20;51.60
44111;DHT22;29774;52.664;5.074;2022-07-15T13:10:31;24.30;46.20
44111;DHT22;29774;52.664;5.074;2022-07-15T13:12:56;24.20;51.50
44111;DHT22;29774;52.664;5.074;2022-07-15T13:15:23;24.10;52.20
44111;DHT22;29774;52.664;5.074;2022-07-15T13:17:48;24.10;50.40
44111;DHT22;29774;52.664;5.074;2022-07-15T13:20:14;24.10;52.30
44111;DHT22;29774;52.664;5.074;2022-07-15T13:22:40;24.10;52.70
44111;DHT22;29774;52.664;5.074;2022-07-15T13:25:06;24.10;52.50
44111;DHT22;29774;52.664;5.074;2022-07-15T13:27:31;24.10;51.80
44111;DHT22;29774;52.664;5.074;2022-07-15T13:29:57;24.20;51.20
44111;DHT22;29774;52.664;5.074;2022-07-15T13:32:23;24.20;50.10
44111;DHT22;29774;52.664;5.074;2022-07-15T13:34:49;24.10;52.30
44111;DHT22;29774;52.664;5.074;2022-07-15T13:37:15;24.20;52.10
44111;DHT22;29774;52.664;5.074;2022-07-15T13:39:40;24.20;50.80
44111;DHT22;29774;52.664;5.074;2022-07-15T13:42:06;24.10;52.30
44111;DHT22;29774;52.664;5.074;2022-07-15T13:44:32;24.10;52.10
44111;DHT22;29774;52.664;5.074;2022-07-15T13:46:57;24.10;52.00
44111;DHT22;29774;52.664;5.074;2022-07-15T13:49:23;24.20;51.40
44111;DHT22;29774;52.664;5.074;2022-07-15T13:52:08;24.20;52.00
44111;DHT22;29774;52.664;5.074;2022-07-15T13:54:34;24.20;52.00
44111;DHT22;29774;52.664;5.074;2022-07-15T13:57:00;24.20;52.10
44111;DHT22;29774;52.664;5.074;2022-07-15T13:59:27;24.20;52.40
44111;DHT22;29774;52.664;5.074;2022-07-15T14:01:52;24.20;52.70
44111;DHT22;29774;52.664;5.074;2022-07-15T14:04:19;24.20;52.60
44111;DHT22;29774;52.664;5.074;2022-07-15T14:06:45;24.20;52.50
44111;DHT22;29774;52.664;5.074;2022-07-15T14:09:11;24.20;52.70
44111;DHT22;29774;52.664;5.074;2022-07-15T14:11:36;24.20;52.50
44111;DHT22;29774;52.664;5.074;2022-07-15T14:14:02;24.20;52.40
44111;DHT22;29774;52.664;5.074;2022-07-15T14:16:28;24.20;52.30
44111;DHT22;29774;52.664;5.074;2022-07-15T14:18:54;24.20;52.20
44111;DHT22;29774;52.664;5.074;2022-07-15T14:21:20;24.20;52.10
44111;DHT22;29774;52.664;5.074;2022-07-15T14:23:47;24.30;52.20
44111;DHT22;29774;52.664;5.074;2022-07-15T14:26:14;24.20;52.10
44111;DHT22;29774;52.664;5.074;2022-07-15T14:28:40;24.30;52.20
44111;DHT22;29774;52.664;5.074;2022-07-15T14:31:07;24.30;52.20
44111;DHT22;29774;52.664;5.074;2022-07-15T14:33:33;24.30;52.00
44111;DHT22;29774;52.664;5.074;2022-07-15T14:35:59;24.30;52.20
44111;DHT22;29774;52.664;5.074;2022-07-15T14:38:25;24.30;52.30
44111;DHT22;29774;52.664;5.074;2022-07-15T14:40:50;24.30;52.20
44111;DHT22;29774;52.664;5.074;2022-07-15T14:43:16;24.30;52.30
44111;DHT22;29774;52.664;5.074;2022-07-15T14:45:42;24.20;49.90
44111;DHT22;29774;52.664;5.074;2022-07-15T14:48:07;24.20;49.90
44111;DHT22;29774;52.664;5.074;2022-07-15T14:50:33;24.20;51.40
44111;DHT22;29774;52.664;5.074;2022-07-15T14:53:02;24.30;52.30
44111;DHT22;29774;52.664;5.074;2022-07-15T14:55:28;24.20;52.50
44111;DHT22;29774;52.664;5.074;2022-07-15T14:57:54;24.20;51.80
44111;DHT22;29774;52.664;5.074;2022-07-15T15:00:20;24.30;52.50
44111;DHT22;29774;52.664;5.074;2022-07-15T15:02:45;24.30;52.70
44111;DHT22;29774;52.664;5.074;2022-07-15T15:05:11;24.10;51.50
44111;DHT22;29774;52.664;5.074;2022-07-15T15:07:38;24.20;52.50
44111;DHT22;29774;52.664;5.074;2022-07-15T15:10:04;24.20;52.70
44111;DHT22;29774;52.664;5.074;2022-07-15T15:12:29;24.30;52.00
44111;DHT22;29774;52.664;5.074;2022-07-15T15:14:55;24.30;52.70
44111;DHT22;29774;52.664;5.074;2022-07-15T15:17:20;24.30;52.50
44111;DHT22;29774;52.664;5.074;2022-07-15T15:19:46;24.20;52.60
44111;DHT22;29774;52.664;5.074;2022-07-15T15:22:11;24.20;53.10
44111;DHT22;29774;52.664;5.074;2022-07-15T15:24:37;24.20;52.90
44111;DHT22;29774;52.664;5.074;2022-07-15T15:27:04;24.20;52.90
44111;DHT22;29774;52.664;5.074;2022-07-15T15:29:33;24.20;52.90
44111;DHT22;29774;52.664;5.074;2022-07-15T15:31:59;24.30;52.80
44111;DHT22;29774;52.664;5.074;2022-07-15T15:34:24;24.20;52.70
44111;DHT22;29774;52.664;5.074;2022-07-15T15:36:52;24.20;52.90
44111;DHT22;29774;52.664;5.074;2022-07-15T15:39:18;24.30;52.80
44111;DHT22;29774;52.664;5.074;2022-07-15T15:41:43;24.10;51.90
44111;DHT22;29774;52.664;5.074;2022-07-15T15:44:12;24.20;53.00
44111;DHT22;29774;52.664;5.074;2022-07-15T15:46:38;24.00;54.00
44111;DHT22;29774;52.664;5.074;2022-07-15T15:49:04;24.20;53.50
44111;DHT22;29774;52.664;5.074;2022-07-15T15:51:33;24.30;53.10
44111;DHT22;29774;52.664;5.074;2022-07-15T15:53:58;24.40;51.10
44111;DHT22;29774;52.664;5.074;2022-07-15T15:56:24;24.40;52.90
44111;DHT22;29774;52.664;5.074;2022-07-15T15:58:50;24.50;52.70
44111;DHT22;29774;52.664;5.074;2022-07-15T16:01:15;24.50;52.90
44111;DHT22;29774;52.664;5.074;2022-07-15T16:03:41;24.40;52.70
44111;DHT22;29774;52.664;5.074;2022-07-15T16:06:06;24.50;52.70
44111;DHT22;29774;52.664;5.074;2022-07-15T16:08:32;24.50;52.90
44111;DHT22;29774;52.664;5.074;2022-07-15T16:10:58;24.50;52.30
44111;DHT22;29774;52.664;5.074;2022-07-15T16:13:23;24.60;52.60
44111;DHT22;29774;52.664;5.074;2022-07-15T16:15:49;24.70;52.40
44111;DHT22;29774;52.664;5.074;2022-07-15T16:18:14;24.60;50.70
44111;DHT22;29774;52.664;5.074;2022-07-15T16:20:40;24.60;52.70